Latest Weather Observations for Batchelor

IDD60801

Issued at 11:31 pm CST Sunday 17 February 2019 (issued every 10 minutes, with the page automatically refreshed every 10 minutes)

About weather observations | Map of weather stations | Latest weather observations for NT | Other Formats
Station Details ID: 014272 Name: BATCHELOR AIRPORT Lat: -13.05 Lon: 131.03 Height: 104.0 m
Data from the previous 72 hours. | See also: Recent months at Batchelor
Date/Time
CST
Temp
°C
App
Temp
°C
Dew
Point
°C
Rel
Hum
%
Delta-T
°C
Wind Press
QNH
hPa
Press
MSL
hPa
Rain since
9am
mm
Dir  Spd
km/h
Gust
km/h
Spd
kts
Gust
kts
17/11:30pm 26.1 - 22.4 80 2.5 - - - - - 1011.8 1011.1 0.2
17/11:00pm 26.1 - 22.0 78 2.8 - - - - - 1011.9 1011.2 0.2
17/10:30pm 26.2 - 21.8 77 2.9 - - - - - 1011.6 1010.9 0.2
17/10:00pm 25.9 - 22.0 79 2.6 - - - - - 1011.3 1010.6 0.2
17/09:30pm 25.8 - 21.9 79 2.6 - - - - - 1011.2 1010.5 -
17/09:00pm 25.8 - 21.7 78 2.7 - - - - - 1010.9 1010.2 0.2
17/08:30pm 25.9 - 21.8 78 2.7 - - - - - 1010.4 1009.7 0.2
17/08:00pm 25.7 - 20.9 75 3.2 - - - - - 1009.9 1009.2 0.2
17/07:30pm 25.5 - 20.3 73 3.4 - - - - - 1009.9 1009.2 0.2
17/07:00pm 24.9 - 20.4 76 2.9 - - - - - 1010.1 1009.4 0.2
17/06:30pm 26.1 27.7 21.5 76 3.1 NW 15 19 8 10 1010.2 1009.5 0.2
17/06:00pm 27.6 29.3 21.6 70 4.0 NW 15 15 8 8 1009.4 1008.7 0.2
17/05:30pm 28.4 31.3 21.7 67 4.5 W 9 13 5 7 1009.0 1008.3 0.2
17/05:00pm 28.3 29.8 21.3 65 4.7 W 15 19 8 10 1008.2 1007.5 0.2
17/04:30pm 29.4 - 22.1 65 5.0 - - - - - 1008.2 1007.5 0.2
17/04:00pm 34.0 36.9 21.8 49 8.3 NW 9 17 5 9 1007.9 1007.2 0.2
17/03:30pm 34.2 36.6 20.9 45 9.0 NW 9 13 5 7 1008.1 1007.4 0.2
17/03:00pm 34.3 37.7 22.0 48 8.4 NNW 7 13 4 7 1008.3 1007.6 0.2
17/02:30pm 34.2 38.5 23.6 54 7.4 NNW 7 15 4 8 1009.3 1008.6 0.2
17/02:00pm 33.5 37.0 22.9 53 7.3 N 9 17 5 9 1009.8 1009.1 0.2
17/01:30pm 32.9 35.8 21.7 51 7.6 N 9 15 5 8 1010.5 1009.8 0.2
17/01:00pm 33.0 36.3 21.5 50 7.8 NW 6 11 3 6 1010.9 1010.2 0.2
17/12:30pm 32.6 36.2 22.1 54 7.2 NW 6 13 3 7 1011.3 1010.6 0.2
17/12:00pm 32.0 35.5 22.1 55 6.8 W 7 15 4 8 1011.8 1011.1 0.2
17/11:30am 31.4 34.6 22.4 59 6.2 NW 9 17 5 9 1012.0 1011.3 0.2
17/11:00am 30.6 34.1 22.2 61 5.7 WNW 7 11 4 6 1012.1 1011.4 0.2
17/10:30am 30.5 34.0 22.9 64 5.2 NW 9 13 5 7 1012.5 1011.8 0.2
17/10:00am 29.3 33.7 22.8 68 4.4 NNW 4 6 2 3 1012.5 1011.8 0.2
17/09:30am 28.3 32.5 22.5 71 3.9 NNW 4 7 2 4 1012.6 1011.9 0.0
17/09:00am 27.2 31.0 22.8 77 3.0 W 7 11 4 6 1012.6 1011.9 4.8
17/08:30am 26.2 30.5 23.7 86 1.7 NW 7 9 4 5 1012.5 1011.8 4.8
17/08:00am 24.6 29.9 24.4 99 0.1 NNE 4 6 2 3 1012.1 1011.4 4.8
17/07:30am 23.6 29.1 23.4 99 0.1 CALM 0 0 0 0 1011.8 1011.1 4.8
17/07:00am 23.4 28.4 23.2 99 0.1 SE 2 2 1 1 1011.5 1010.8 4.8
17/06:30am 23.6 28.0 23.4 99 0.1 ESE 6 7 3 4 1011.0 1010.3 4.8
17/06:00am 23.6 28.7 23.4 99 0.1 SE 2 6 1 3 1010.8 1010.1 4.8
17/05:30am 23.6 28.3 23.4 99 0.1 SE 4 4 2 2 1010.6 1009.9 4.8
17/05:00am 23.5 28.9 23.3 99 0.1 CALM 0 0 0 0 1010.1 1009.4 4.8
17/04:30am 23.6 28.3 23.4 99 0.1 SE 4 4 2 2 1009.9 1009.2 4.8
17/04:00am 23.6 28.7 23.3 98 0.2 SE 2 2 1 1 1009.8 1009.1 4.8
17/03:30am 23.7 28.7 23.2 97 0.3 N 2 4 1 2 1009.6 1008.9 4.8
17/03:00am 23.9 28.9 23.2 96 0.5 N 2 4 1 2 1009.7 1009.0 4.8
17/02:30am 23.9 28.3 23.4 97 0.3 NW 6 7 3 4 1009.8 1009.1 4.8
17/02:00am 24.2 29.6 23.2 94 0.7 CALM 0 0 0 0 1010.0 1009.3 4.8
17/01:30am 24.4 28.6 23.2 93 0.8 NNW 6 7 3 4 1010.6 1009.9 4.8
17/01:00am 24.6 29.5 23.0 91 1.1 SSW 2 6 1 3 1011.0 1010.3 4.8
17/12:30am 24.5 29.3 22.9 91 1.1 SSW 2 4 1 2 1011.7 1011.0 4.8
17/12:00am 24.4 28.5 23.0 92 0.9 SW 6 11 3 6 1012.4 1011.7 4.8
 
Date/Time
CST
Temp
°C
App
Temp
°C
Dew
Point
°C
Rel
Hum
%
Delta-T
°C
Wind Press
QNH
hPa
Press
MSL
hPa
Rain since
9am
mm
Dir  Spd
km/h
Gust
km/h
Spd
kts
Gust
kts
16/11:30pm 24.3 28.9 23.1 93 0.8 S 4 7 2 4 1012.5 1011.8 4.8
16/11:00pm 24.3 28.6 23.3 94 0.7 SSE 6 6 3 3 1012.9 1012.1 4.8
16/10:30pm 24.2 27.9 23.2 94 0.7 SE 9 13 5 7 1012.4 1011.7 4.8
16/10:00pm 24.5 28.1 23.1 92 1.0 ESE 9 11 5 6 1012.8 1012.0 4.8
16/09:30pm 24.5 28.8 23.3 93 0.8 ESE 6 9 3 5 1012.8 1012.0 4.8
16/09:00pm 24.5 29.1 23.1 92 1.0 NNE 4 6 2 3 1011.9 1011.2 4.8
16/08:30pm 24.5 29.3 22.8 90 1.1 NW 2 6 1 3 1011.7 1011.0 4.8
16/08:00pm 24.4 28.1 22.3 88 1.4 NNW 6 11 3 6 1011.7 1011.0 4.6
16/07:30pm 24.5 28.2 22.2 87 1.5 NNW 6 11 3 6 1010.9 1010.2 4.6
16/07:00pm 25.1 28.9 21.6 81 2.3 SW 4 7 2 4 1011.7 1011.0 4.6
16/06:30pm 24.5 27.0 21.0 81 2.3 SW 9 17 5 9 1011.1 1010.4 4.6
16/06:00pm 24.7 28.0 21.8 84 1.9 NW 7 13 4 7 1010.5 1009.8 4.6
16/05:30pm 25.1 27.0 21.4 80 2.5 WNW 13 20 7 11 1008.9 1008.2 4.6
16/05:00pm 26.5 29.1 21.9 76 3.1 WNW 11 24 6 13 1009.2 1008.5 4.6
16/04:30pm 25.9 28.7 21.6 77 2.9 WNW 9 15 5 8 1007.7 1007.0 4.6
16/04:00pm 25.4 27.0 21.5 79 2.6 N 15 28 8 15 1008.0 1007.3 4.6
16/03:43pm 27.3 26.9 19.4 62 5.1 ENE 20 52 11 28 1008.2 1007.5 0.6
16/03:42pm 29.7 29.8 19.1 53 6.9 NE 17 50 9 27 1008.2 1007.5 0.0
16/03:30pm 35.2 39.3 22.9 49 8.6 N 6 13 3 7 1008.0 1007.3 0.0
16/03:00pm 34.7 38.0 21.4 46 9.1 NNW 6 11 3 6 1008.6 1007.9 0.0
16/02:30pm 34.0 38.2 23.1 53 7.6 NNE 6 9 3 5 1009.2 1008.5 0.0
16/02:00pm 34.4 38.0 22.1 48 8.4 NW 6 11 3 6 1010.0 1009.3 0.0
16/01:30pm 34.4 38.0 22.1 48 8.5 NNW 6 9 3 5 1010.5 1009.8 0.0
16/01:00pm 33.7 38.1 22.8 53 7.5 ENE 4 9 2 5 1011.3 1010.6 0.0
16/12:30pm 33.2 36.9 22.6 53 7.3 ENE 7 13 4 7 1011.8 1011.1 0.0
16/12:00pm 32.3 36.8 23.0 58 6.4 NE 4 7 2 4 1012.1 1011.4 0.0
16/11:30am 32.3 36.7 23.8 61 5.9 ESE 7 13 4 7 1012.6 1011.9 0.0
16/11:00am 31.5 36.2 23.9 64 5.3 SE 6 11 3 6 1013.2 1012.4 0.0
16/10:30am 30.3 35.9 24.2 70 4.3 WNW 2 4 1 2 1013.3 1012.5 0.0
16/10:00am 30.4 36.0 24.3 70 4.3 SW 2 6 1 3 1013.6 1012.8 0.0
16/09:30am 29.8 35.4 24.2 72 3.9 S 2 6 1 3 1013.6 1012.8 0.0
16/09:00am 30.1 36.0 25.4 76 3.3 SSE 4 6 2 3 1013.2 1012.4 0.2
16/08:30am 28.9 34.7 25.1 80 2.7 NE 4 6 2 3 1012.8 1012.0 0.2
16/08:00am 27.1 32.8 24.4 85 1.9 E 2 6 1 3 1012.4 1011.7 0.2
16/07:30am 25.6 31.3 23.8 90 1.2 CALM 0 0 0 0 1012.1 1011.4 0.2
16/07:00am 25.5 31.1 23.6 89 1.3 CALM 0 0 0 0 1012.0 1011.3 0.2
16/06:30am 25.3 30.7 23.2 88 1.4 CALM 0 0 0 0 1011.9 1011.2 0.2
16/06:00am 25.1 30.7 23.5 91 1.1 CALM 0 0 0 0 1011.7 1011.0 0.2
16/05:30am 24.9 30.2 23.0 89 1.3 CALM 0 0 0 0 1011.6 1010.9 0.2
16/05:00am 25.0 30.3 23.1 89 1.3 CALM 0 0 0 0 1011.5 1010.8 0.2
16/04:30am 25.4 30.7 23.1 87 1.6 CALM 0 0 0 0 1011.4 1010.7 0.2
16/04:00am 25.5 30.6 22.6 84 2.0 CALM 0 2 0 1 1011.4 1010.7 0.2
16/03:30am 25.4 29.9 22.9 86 1.7 E 4 6 2 3 1011.5 1010.8 0.2
16/03:00am 24.9 29.3 22.8 88 1.4 W 4 4 2 2 1011.7 1011.0 0.2
16/02:30am 25.0 29.3 22.7 87 1.6 W 4 4 2 2 1011.7 1011.0 0.2
16/02:00am 25.5 30.2 22.6 84 2.0 W 2 4 1 2 1012.1 1011.4 0.2
16/01:30am 25.4 30.8 23.3 88 1.4 CALM 0 0 0 0 1012.6 1011.9 0.2
16/01:00am 25.4 30.5 22.7 85 1.8 CALM 0 0 0 0 1013.0 1012.2 0.2
16/12:30am 25.7 30.9 22.8 84 2.0 CALM 0 0 0 0 1013.4 1012.6 0.2
16/12:00am 25.5 30.6 22.6 84 2.0 CALM 0 0 0 0 1013.3 1012.5 0.2
 
Date/Time
CST
Temp
°C
App
Temp
°C
Dew
Point
°C
Rel
Hum
%
Delta-T
°C
Wind Press
QNH
hPa
Press
MSL
hPa
Rain since
9am
mm
Dir  Spd
km/h
Gust
km/h
Spd
kts
Gust
kts
15/11:30pm 25.5 30.4 22.4 83 2.1 CALM 0 0 0 0 1013.0 1012.2 0.2
15/11:00pm 25.6 30.5 22.3 82 2.2 CALM 0 0 0 0 1013.1 1012.3 0.2
15/10:30pm 25.6 30.6 22.5 83 2.1 CALM 0 2 0 1 1013.1 1012.3 0.2
15/10:00pm 25.9 30.7 22.2 80 2.5 CALM 0 0 0 0 1012.6 1011.9 0.2
15/09:30pm 26.0 30.3 21.9 78 2.7 W 2 2 1 1 1012.1 1011.4 0.2
15/09:00pm 26.0 29.7 21.4 76 3.1 W 4 6 2 3 1011.9 1011.2 0.2
15/08:30pm 26.3 29.4 21.1 73 3.5 WNW 6 9 3 5 1011.9 1011.2 0.2
15/08:00pm 26.6 30.0 20.9 71 3.8 W 4 11 2 6 1011.7 1011.0 0.2
15/07:30pm 27.4 29.3 20.5 66 4.6 WNW 11 17 6 9 1011.6 1010.9 0.2
15/07:00pm 28.3 28.9 19.5 59 5.7 NW 15 24 8 13 1011.1 1010.4 0.2
15/06:30pm 30.7 31.7 21.8 59 6.0 NNW 19 28 10 15 1010.3 1009.6 0.2
15/06:00pm 33.2 36.5 23.2 55 6.9 NNW 11 17 6 9 1009.6 1008.9 0.2
15/05:30pm 35.3 38.5 21.6 45 9.4 N 7 13 4 7 1009.1 1008.4 0.2
15/05:00pm 35.5 38.9 21.7 44 9.4 NW 6 9 3 5 1008.5 1007.8 0.2
15/04:30pm 34.5 37.6 21.5 46 8.9 N 7 11 4 6 1008.8 1008.1 0.2
15/04:00pm 35.4 38.0 20.5 41 10.0 NW 7 15 4 8 1009.4 1008.7 0.2
15/03:30pm 35.6 38.5 21.1 43 9.9 NW 7 15 4 8 1009.9 1009.2 0.2
15/03:00pm 34.9 38.1 21.2 45 9.3 NNW 6 11 3 6 1009.9 1009.2 0.2
15/02:30pm 34.8 38.3 22.2 48 8.7 W 7 13 4 7 1010.1 1009.4 0.2
15/02:00pm 34.7 37.6 21.7 46 8.9 NNW 9 17 5 9 1010.6 1009.9 0.2
15/01:30pm 34.5 37.6 22.2 48 8.5 N 9 19 5 10 1011.0 1010.3 0.2
15/01:00pm 33.6 37.4 22.7 53 7.5 N 7 15 4 8 1011.6 1010.9 0.2
15/12:30pm 33.1 37.3 23.4 56 6.8 NW 7 13 4 7 1012.0 1011.3 0.2
15/12:00pm 32.8 36.4 22.0 53 7.4 NNW 6 9 3 5 1012.5 1011.8 0.0
15/11:30am 32.9 37.5 24.1 60 6.2 WNW 7 11 4 6 1013.0 1012.2 0.0
15/11:00am 31.8 36.1 23.6 62 5.7 WNW 7 13 4 7 1013.1 1012.3 0.0
15/10:30am 30.9 35.9 24.5 68 4.5 W 6 9 3 5 1013.3 1012.5 0.0
15/10:00am 29.8 34.2 24.4 73 3.8 W 9 17 5 9 1013.3 1012.5 0.0
15/09:30am 29.1 33.4 23.3 71 4.0 W 6 9 3 5 1013.0 1012.2 0.0
15/09:00am 28.0 32.5 22.2 70 3.9 W 2 6 1 3 1013.0 1012.2 0.0
15/08:30am 26.7 31.6 22.3 77 3.0 CALM 0 0 0 0 1012.8 1012.0 0.0
15/08:00am 25.6 30.3 21.9 80 2.5 CALM 0 0 0 0 1012.5 1011.8 0.0
15/07:30am 24.6 29.4 22.1 86 1.7 CALM 0 0 0 0 1012.0 1011.3 0.0
15/07:00am 24.1 28.1 21.4 85 1.8 NE 2 4 1 2 1011.6 1010.9 0.0
15/06:30am 24.2 27.3 21.1 83 2.0 NW 6 11 3 6 1011.4 1010.7 0.0
15/06:00am 24.4 27.2 20.9 81 2.3 WNW 7 13 4 7 1010.6 1009.9 0.0
15/05:30am 24.3 27.3 21.2 83 2.1 W 7 11 4 6 1009.8 1009.1 0.0
15/05:00am 24.1 27.8 21.4 85 1.8 W 4 6 2 3 1009.5 1008.8 0.0
15/04:30am 24.2 27.5 21.5 85 1.8 WNW 6 7 3 4 1009.6 1008.9 0.0
15/04:00am 24.6 29.2 21.7 84 1.9 CALM 0 0 0 0 1009.6 1008.9 0.0
15/03:30am 25.1 28.5 20.1 74 3.3 NE 2 6 1 3 1009.8 1009.1 0.0
15/03:00am 24.8 27.7 20.7 78 2.7 ENE 6 7 3 4 1010.1 1009.4 0.0
15/02:30am 24.4 27.6 20.5 79 2.6 E 4 6 2 3 1010.6 1009.9 0.0
15/02:00am 24.6 27.3 20.3 77 2.8 ENE 6 7 3 4 1011.3 1010.6 0.0
15/01:30am 24.7 27.7 20.8 79 2.6 ENE 6 9 3 5 1012.1 1011.4 0.0
15/01:00am 24.6 26.1 21.3 82 2.2 ENE 15 28 8 15 1013.3 1012.5 0.0
15/12:30am 27.5 30.7 24.4 83 2.2 ENE 15 39 8 21 1013.2 1012.4 0.0
15/12:00am 27.5 33.0 25.3 88 1.5 NW 6 7 3 4 1011.9 1011.2 0.0

Other Formats:

Comma delimited format used in spreadsheet applications
http://www.bom.gov.au/fwo/IDD60801/IDD60801.94125.axf

JavaScript Object Notation format (JSON) in row-major order
http://www.bom.gov.au/fwo/IDD60801/IDD60801.94125.json